Time;durP1;ratioP1;P1;durP2;ratioP2;P2;SDS_P1;SDS_P2;PMS_P1;PMS_P2;Temp;Humidity;BMP_temperature;BMP_pressure;BME280_temperature;BME280_humidity;BME280_pressure;Samples;Min_cycle;Max_cycle;Signal;HPM_P1;HPM_P2
2023/05/03 00:01:19;;;;;;;12.32;5.72;;;3.30;99.90;;;;;;5053271;28;20033;-64
2023/05/03 00:03:45;;;;;;;8.55;5.82;;;3.30;99.90;;;;;;5053275;28;20029;-64
2023/05/03 00:06:14;;;;;;;9.52;6.32;;;3.20;99.90;;;;;;5053167;28;20029;-64
2023/05/03 00:08:40;;;;;;;10.15;6.38;;;3.20;99.90;;;;;;5053241;28;20029;-64
2023/05/03 00:11:07;;;;;;;8.93;6.30;;;3.20;99.90;;;;;;5053452;28;20029;-65
2023/05/03 00:13:32;;;;;;;9.57;6.05;;;3.10;99.90;;;;;;5052870;28;20044;-64
2023/05/03 00:15:58;;;;;;;11.43;5.72;;;3.10;99.90;;;;;;5053379;28;20045;-65
2023/05/03 00:18:24;;;;;;;10.77;5.70;;;3.10;99.90;;;;;;5052748;28;20036;-64
2023/05/03 00:20:50;;;;;;;12.73;6.05;;;3.10;99.90;;;;;;5052780;28;20422;-64
2023/05/03 00:23:15;;;;;;;7.65;5.18;;;3.10;99.90;;;;;;5053359;28;20104;-64
2023/05/03 00:25:41;;;;;;;8.98;5.82;;;3.00;99.90;;;;;;5056351;28;20102;-64
2023/05/03 00:28:07;;;;;;;9.50;5.68;;;3.00;99.90;;;;;;5056887;28;20098;-65
2023/05/03 00:30:33;;;;;;;10.10;5.50;;;2.90;99.90;;;;;;5056609;28;20413;-65
2023/05/03 00:32:58;;;;;;;10.30;6.15;;;2.90;99.90;;;;;;5056724;28;20082;-65
2023/05/03 00:35:26;;;;;;;10.65;6.70;;;2.90;99.90;;;;;;5056466;28;20079;-65
2023/05/03 00:37:51;;;;;;;17.63;7.00;;;2.80;99.90;;;;;;5056469;28;20124;-65
2023/05/03 00:40:17;;;;;;;15.10;6.30;;;2.90;99.90;;;;;;5056707;28;20052;-65
2023/05/03 00:42:45;;;;;;;9.40;6.78;;;2.80;99.90;;;;;;5055874;28;20546;-65
2023/05/03 00:45:11;;;;;;;11.18;6.38;;;2.80;99.90;;;;;;5056374;28;20021;-65
2023/05/03 00:47:37;;;;;;;10.75;6.30;;;2.80;99.90;;;;;;5056053;28;20079;-65
2023/05/03 00:50:03;;;;;;;16.35;7.25;;;2.80;99.90;;;;;;5056647;28;20059;-64
2023/05/03 00:52:29;;;;;;;10.90;6.55;;;2.80;99.90;;;;;;5056201;28;20033;-65
2023/05/03 00:54:56;;;;;;;10.30;6.80;;;2.80;99.90;;;;;;5056387;28;20122;-65
2023/05/03 00:57:23;;;;;;;14.35;6.93;;;2.80;99.90;;;;;;5055760;28;20162;-64
2023/05/03 00:59:48;;;;;;;10.98;6.38;;;2.70;99.90;;;;;;5055844;28;20021;-65
2023/05/03 01:02:14;;;;;;;9.27;6.65;;;2.70;99.90;;;;;;5056007;28;20364;-65
2023/05/03 01:04:41;;;;;;;13.85;6.70;;;2.70;99.90;;;;;;5056227;28;20032;-65
2023/05/03 01:07:33;;;;;;;12.43;6.53;;;2.70;99.90;;;;;;5056129;28;20044;-65
2023/05/03 01:10:14;;;;;;;9.10;6.35;;;2.60;99.90;;;;;;5055471;28;20036;-64
2023/05/03 01:15:50;;;;;;;11.00;7.00;;;2.60;99.90;;;;;;5071339;28;20386;-64
2023/05/03 01:18:20;;;;;;;10.50;6.70;;;2.60;99.90;;;;;;5071359;28;20025;-64
2023/05/03 01:20:48;;;;;;;12.63;6.80;;;2.60;99.90;;;;;;5071239;28;20029;-64
2023/05/03 01:23:27;;;;;;;15.02;6.82;;;2.60;99.90;;;;;;5071491;28;20131;-64
2023/05/03 01:25:53;;;;;;;10.68;6.57;;;2.70;99.90;;;;;;5070574;28;20056;-64
2023/05/03 01:28:18;;;;;;;14.52;7.10;;;2.70;99.90;;;;;;5070203;28;20071;-64
2023/05/03 01:30:45;;;;;;;12.20;7.00;;;2.70;99.90;;;;;;5070850;28;20033;-64
2023/05/03 01:33:21;;;;;;;10.40;6.72;;;2.70;99.90;;;;;;5071058;28;20462;-64
2023/05/03 01:36:11;;;;;;;13.60;7.13;;;2.70;99.90;;;;;;5071092;28;20028;-64
2023/05/03 01:38:38;;;;;;;13.85;7.85;;;2.70;99.90;;;;;;5070487;28;20474;-64
2023/05/03 01:41:08;;;;;;;10.40;7.15;;;2.60;99.90;;;;;;5070970;28;20477;-64
2023/05/03 01:43:35;;;;;;;9.45;6.85;;;2.60;99.90;;;;;;5070042;28;20025;-64
2023/05/03 01:46:01;;;;;;;13.02;7.65;;;2.60;99.90;;;;;;5070450;28;20032;-64
2023/05/03 01:48:26;;;;;;;12.82;7.82;;;2.60;99.90;;;;;;5070412;28;20082;-64
2023/05/03 01:50:52;;;;;;;14.60;7.65;;;2.50;99.90;;;;;;5070343;28;20377;-64
2023/05/03 01:53:17;;;;;;;11.13;7.00;;;2.50;99.90;;;;;;5070191;28;20493;-65
2023/05/03 01:55:43;;;;;;;13.52;6.85;;;2.50;99.90;;;;;;5069945;28;20020;-65
2023/05/03 01:58:08;;;;;;;13.25;7.97;;;2.40;99.90;;;;;;5070794;28;20040;-64
2023/05/03 02:00:34;;;;;;;16.85;8.18;;;2.40;99.90;;;;;;5070736;28;20025;-65
2023/05/03 02:03:00;;;;;;;14.35;7.80;;;2.40;99.90;;;;;;5070617;28;20029;-64
2023/05/03 02:05:25;;;;;;;14.68;8.23;;;2.50;99.90;;;;;;5070136;28;20032;-64
2023/05/03 02:07:51;;;;;;;18.63;8.70;;;2.50;99.90;;;;;;5070608;28;20060;-65
2023/05/03 02:10:16;;;;;;;19.77;9.48;;;2.60;99.90;;;;;;5069656;28;20540;-64
2023/05/03 02:12:43;;;;;;;16.20;8.82;;;2.60;99.90;;;;;;5069940;28;20037;-64
2023/05/03 02:15:10;;;;;;;14.00;8.20;;;2.60;99.90;;;;;;5069206;28;20433;-64
2023/05/03 02:17:36;;;;;;;13.98;8.65;;;2.70;99.90;;;;;;5069707;28;20524;-64
2023/05/03 02:20:04;;;;;;;14.68;9.00;;;2.60;99.90;;;;;;5069686;28;20020;-64
2023/05/03 02:22:30;;;;;;;19.15;10.43;;;2.60;99.90;;;;;;5069722;28;20040;-64
2023/05/03 02:24:57;;;;;;;17.05;9.18;;;2.90;99.90;;;;;;5068263;28;20058;-64
2023/05/03 02:27:23;;;;;;;17.73;9.40;;;3.00;99.90;;;;;;5056546;28;20029;-64
2023/05/03 02:29:48;;;;;;;18.10;9.68;;;3.10;99.90;;;;;;5056431;28;20036;-64
2023/05/03 02:32:14;;;;;;;16.83;9.88;;;3.10;99.90;;;;;;5056341;28;20033;-64
2023/05/03 02:34:40;;;;;;;18.10;9.30;;;3.10;99.90;;;;;;5055754;28;20021;-64
2023/05/03 02:37:06;;;;;;;16.77;9.57;;;3.10;99.90;;;;;;5056828;28;20029;-64
2023/05/03 02:39:31;;;;;;;16.50;9.30;;;3.20;99.90;;;;;;5056529;28;20032;-64
2023/05/03 02:41:57;;;;;;;17.25;8.80;;;3.20;99.90;;;;;;5056747;28;20112;-64
2023/05/03 02:44:22;;;;;;;17.17;9.27;;;3.20;99.90;;;;;;5056320;28;20033;-64
2023/05/03 02:46:48;;;;;;;17.60;8.98;;;3.20;99.90;;;;;;5056697;28;20033;-64
2023/05/03 02:49:14;;;;;;;18.95;9.07;;;3.10;99.90;;;;;;5055430;28;20079;-64
2023/05/03 02:51:40;;;;;;;13.25;8.32;;;3.10;99.90;;;;;;5056539;28;20127;-64
2023/05/03 02:54:05;;;;;;;16.42;8.82;;;3.10;99.90;;;;;;5055759;28;20033;-64
2023/05/03 02:56:32;;;;;;;18.95;9.55;;;3.00;99.90;;;;;;5055316;28;20033;-64
2023/05/03 02:58:58;;;;;;;15.65;9.18;;;2.80;99.90;;;;;;5055986;28;20356;-64
2023/05/03 03:01:23;;;;;;;18.92;9.48;;;2.80;99.90;;;;;;5055985;28;20056;-64
2023/05/03 03:03:49;;;;;;;14.38;8.48;;;2.70;99.90;;;;;;5056180;28;20037;-64
2023/05/03 03:06:14;;;;;;;14.13;8.90;;;2.60;99.90;;;;;;5055725;28;20032;-64
2023/05/03 03:08:40;;;;;;;15.18;8.55;;;2.50;99.90;;;;;;5055649;28;20029;-64
2023/05/03 03:11:06;;;;;;;15.35;8.25;;;2.50;99.90;;;;;;5055641;28;20029;-64
2023/05/03 03:13:31;;;;;;;12.90;8.25;;;2.40;99.90;;;;;;5055385;28;20053;-64
2023/05/03 03:15:57;;;;;;;12.55;8.73;;;2.30;99.90;;;;;;5054833;28;20017;-64
2023/05/03 03:18:22;;;;;;;16.33;9.25;;;2.30;99.90;;;;;;5055780;28;20033;-64
2023/05/03 03:20:48;;;;;;;15.05;8.68;;;2.20;99.90;;;;;;5055583;28;20021;-64
2023/05/03 03:23:13;;;;;;;14.23;8.98;;;2.20;99.90;;;;;;5055561;28;20378;-64
2023/05/03 03:25:41;;;;;;;16.63;10.60;;;2.20;99.90;;;;;;5055632;28;20025;-64
2023/05/03 03:28:06;;;;;;;15.05;9.27;;;2.10;99.90;;;;;;5055570;28;20051;-65
2023/05/03 03:30:32;;;;;;;14.90;8.77;;;2.10;99.90;;;;;;5055855;28;20529;-65
2023/05/03 03:32:57;;;;;;;14.95;9.63;;;2.00;99.90;;;;;;5055239;28;20029;-65
2023/05/03 03:35:23;;;;;;;18.70;9.82;;;2.00;99.90;;;;;;5055489;28;20025;-65
2023/05/03 03:37:49;;;;;;;14.23;9.18;;;2.00;99.90;;;;;;5054137;28;20064;-65
2023/05/03 03:40:14;;;;;;;14.38;8.85;;;2.00;99.90;;;;;;5055176;28;20021;-65
2023/05/03 03:42:40;;;;;;;18.67;10.07;;;2.00;99.90;;;;;;5055517;28;20055;-65
2023/05/03 03:45:06;;;;;;;16.02;9.48;;;2.00;99.90;;;;;;5054580;28;20395;-65
2023/05/03 03:47:32;;;;;;;16.42;9.43;;;1.90;99.90;;;;;;5055018;28;20463;-65
2023/05/03 03:49:58;;;;;;;18.67;10.75;;;1.90;99.90;;;;;;5055187;28;20029;-65
2023/05/03 03:52:24;;;;;;;15.15;9.25;;;1.90;99.90;;;;;;5055329;28;20029;-65
2023/05/03 03:54:50;;;;;;;13.93;9.55;;;1.90;99.90;;;;;;5055079;28;20182;-65
2023/05/03 03:57:15;;;;;;;13.30;9.55;;;1.90;99.90;;;;;;5055230;28;20021;-65
2023/05/03 03:59:41;;;;;;;15.30;9.80;;;1.90;99.90;;;;;;5055316;28;20115;-65
2023/05/03 04:02:07;;;;;;;17.73;10.15;;;1.90;99.90;;;;;;5054810;28;20025;-65
2023/05/03 04:04:33;;;;;;;17.73;10.63;;;1.90;99.90;;;;;;5054888;28;20036;-65
2023/05/03 04:06:58;;;;;;;18.08;10.65;;;1.90;99.90;;;;;;5053905;28;20025;-65
2023/05/03 04:09:24;;;;;;;15.05;9.32;;;2.00;99.90;;;;;;5055055;28;20120;-65
2023/05/03 04:11:49;;;;;;;16.27;10.38;;;2.00;99.90;;;;;;5054909;28;20048;-65
2023/05/03 04:14:15;;;;;;;16.80;9.95;;;2.10;99.90;;;;;;5053837;28;20049;-65
2023/05/03 04:16:40;;;;;;;16.50;10.77;;;2.10;99.90;;;;;;5054305;28;20107;-65
2023/05/03 04:19:06;;;;;;;15.90;10.23;;;2.20;99.90;;;;;;5054519;28;20426;-65
2023/05/03 04:21:31;;;;;;;17.73;10.73;;;2.20;99.90;;;;;;5054853;28;20029;-65
2023/05/03 04:23:57;;;;;;;15.48;10.95;;;2.20;99.90;;;;;;5054685;28;20079;-65
2023/05/03 04:26:23;;;;;;;18.90;11.07;;;2.30;99.90;;;;;;5054218;28;20032;-65
2023/05/03 04:28:50;;;;;;;20.30;12.00;;;2.40;99.90;;;;;;5053751;28;20021;-65
2023/05/03 04:31:17;;;;;;;18.75;10.90;;;2.40;99.90;;;;;;5054580;28;20103;-65
2023/05/03 04:33:43;;;;;;;22.35;12.23;;;2.50;99.90;;;;;;5054549;28;20419;-65
2023/05/03 04:36:09;;;;;;;19.38;12.15;;;2.50;99.90;;;;;;5054607;28;20021;-65
2023/05/03 04:38:35;;;;;;;20.90;12.25;;;2.60;99.90;;;;;;5053982;28;20021;-65
2023/05/03 04:41:00;;;;;;;21.48;12.10;;;2.80;99.90;;;;;;5053797;28;20024;-66
2023/05/03 04:43:26;;;;;;;18.80;11.95;;;2.90;99.90;;;;;;5054327;28;20036;-64
2023/05/03 04:45:52;;;;;;;17.45;11.20;;;3.00;99.90;;;;;;5054378;28;20033;-65
2023/05/03 04:48:18;;;;;;;23.48;12.40;;;3.10;99.90;;;;;;5053345;28;20024;-64
2023/05/03 04:50:43;;;;;;;23.55;12.02;;;3.30;99.90;;;;;;5054274;28;20025;-64
2023/05/03 04:53:09;;;;;;;26.02;13.20;;;3.40;99.90;;;;;;5053768;28;20060;-64
2023/05/03 04:55:35;;;;;;;19.83;12.40;;;3.60;99.90;;;;;;5053821;28;20412;-65
2023/05/03 04:58:00;;;;;;;22.55;12.38;;;3.80;99.90;;;;;;5053749;28;20028;-64
2023/05/03 05:00:26;;;;;;;18.25;11.98;;;3.90;99.90;;;;;;5053884;28;20035;-65
2023/05/03 05:02:51;;;;;;;21.70;12.50;;;4.10;99.90;;;;;;5053752;28;20025;-65
2023/05/03 05:05:17;;;;;;;20.92;10.60;;;4.20;99.90;;;;;;5053870;28;20090;-64
2023/05/03 05:07:43;;;;;;;21.35;10.80;;;4.20;99.90;;;;;;5053363;28;20041;-65
2023/05/03 05:10:09;;;;;;;16.15;10.02;;;4.20;99.90;;;;;;5053785;28;20033;-64
2023/05/03 05:12:34;;;;;;;18.90;10.75;;;4.20;99.90;;;;;;5053658;28;20543;-65
2023/05/03 05:15:00;;;;;;;15.38;9.63;;;4.30;99.90;;;;;;5052877;28;20054;-64
2023/05/03 05:17:26;;;;;;;18.45;9.25;;;4.30;99.90;;;;;;5054107;28;20032;-65
2023/05/03 05:19:52;;;;;;;12.55;8.85;;;4.40;99.90;;;;;;5054026;28;20489;-65
2023/05/03 05:22:18;;;;;;;15.63;8.85;;;4.50;99.90;;;;;;5053770;28;20021;-64
2023/05/03 05:24:44;;;;;;;15.90;9.38;;;4.70;99.90;;;;;;5053464;28;20039;-65
2023/05/03 05:27:09;;;;;;;12.25;8.27;;;4.90;99.90;;;;;;5053814;28;20115;-65
2023/05/03 05:29:35;;;;;;;13.13;8.32;;;5.10;99.90;;;;;;5053283;28;20032;-65
2023/05/03 05:32:02;;;;;;;21.63;9.68;;;5.50;99.90;;;;;;5053200;28;20069;-65
2023/05/03 05:34:28;;;;;;;15.98;7.97;;;5.60;99.90;;;;;;5053399;28;20021;-65
2023/05/03 05:36:53;;;;;;;12.88;7.53;;;5.80;99.90;;;;;;5053251;28;20104;-65
2023/05/03 05:39:20;;;;;;;14.10;7.57;;;6.10;84.20;;;;;;5053493;28;20036;-65
2023/05/03 05:41:46;;;;;;;10.40;6.70;;;7.00;77.70;;;;;;5053303;28;20059;-65
2023/05/03 05:44:12;;;;;;;10.63;5.90;;;8.60;1.00;;;;;;5053125;28;20420;-65
2023/05/03 05:46:37;;;;;;;10.25;5.25;;;10.50;1.00;;;;;;5053505;28;20031;-65
2023/05/03 05:49:03;;;;;;;8.77;4.68;;;12.80;24.50;;;;;;5052970;28;20040;-66
2023/05/03 05:51:30;;;;;;;11.02;5.10;;;12.70;99.90;;;;;;5052519;28;20094;-64
2023/05/03 05:53:56;;;;;;;10.93;4.80;;;13.20;99.90;;;;;;5052845;28;20495;-64
2023/05/03 05:56:21;;;;;;;10.93;5.07;;;13.10;99.90;;;;;;5053389;28;20036;-65
2023/05/03 05:58:47;;;;;;;5.95;4.18;;;13.40;99.90;;;;;;5053436;28;20025;-64
2023/05/03 06:01:13;;;;;;;9.75;4.60;;;13.70;99.90;;;;;;5055130;28;20033;-64
2023/05/03 06:03:38;;;;;;;7.25;4.50;;;13.90;90.70;;;;;;5056658;28;20036;-64
2023/05/03 06:06:04;;;;;;;5.20;3.85;;;12.70;1.00;;;;;;5057065;28;20080;-64
2023/05/03 06:08:29;;;;;;;8.43;4.13;;;14.40;1.00;;;;;;5056658;28;20065;-64
2023/05/03 06:10:55;;;;;;;7.18;4.47;;;13.50;1.00;;;;;;5056557;28;20021;-64
2023/05/03 06:13:21;;;;;;;8.23;4.30;;;12.80;99.90;;;;;;5056494;28;20047;-64
2023/05/03 06:15:47;;;;;;;9.50;3.97;;;13.50;99.90;;;;;;5055886;28;20025;-64
2023/05/03 06:18:12;;;;;;;6.68;3.90;;;14.30;1.00;;;;;;5056495;28;20426;-64
2023/05/03 06:20:39;;;;;;;8.20;3.88;;;14.00;1.00;;;;;;5056338;28;20386;-64
2023/05/03 06:23:04;;;;;;;6.50;3.75;;;14.40;1.00;;;;;;5055410;28;20048;-64
2023/05/03 06:25:30;;;;;;;9.30;4.25;;;14.40;8.70;;;;;;5056332;28;20060;-64
2023/05/03 06:27:56;;;;;;;7.47;4.15;;;14.70;1.00;;;;;;5056561;28;20029;-64
2023/05/03 06:30:22;;;;;;;7.22;3.85;;;15.80;99.90;;;;;;5056363;28;20479;-64
2023/05/03 06:32:48;;;;;;;8.02;3.83;;;15.40;99.90;;;;;;5055957;28;20090;-64
2023/05/03 06:35:14;;;;;;;9.00;4.43;;;14.90;99.90;;;;;;5045760;28;20110;-64
2023/05/03 06:37:42;;;;;;;7.10;4.43;;;14.20;99.90;;;;;;5052978;28;20486;-64
2023/05/03 06:40:08;;;;;;;10.88;4.20;;;15.80;99.90;;;;;;5056181;28;20374;-65
2023/05/03 06:42:34;;;;;;;11.63;4.30;;;15.20;99.90;;;;;;5056650;28;20455;-64
2023/05/03 06:44:59;;;;;;;11.98;4.43;;;15.30;99.90;;;;;;5056567;28;20043;-64
2023/05/03 06:47:25;;;;;;;9.35;3.92;;;15.30;99.90;;;;;;5055632;28;20061;-64
2023/05/03 06:49:50;;;;;;;9.57;3.92;;;16.30;99.90;;;;;;5055849;28;20120;-65
2023/05/03 06:52:16;;;;;;;8.73;4.13;;;16.20;88.10;;;;;;5056444;28;20033;-64
2023/05/03 06:54:42;;;;;;;8.45;3.92;;;16.30;99.90;;;;;;5055643;28;20030;-64
2023/05/03 06:57:09;;;;;;;8.75;4.35;;;16.40;40.50;;;;;;5046513;28;20032;-65
2023/05/03 06:59:34;;;;;;;8.73;4.07;;;17.80;12.90;;;;;;5048362;28;20021;-64
2023/05/03 07:02:00;;;;;;;4.68;3.30;;;17.40;1.00;;;;;;5050206;28;20067;-64
2023/05/03 07:04:26;;;;;;;7.30;3.50;;;18.30;1.00;;;;;;5055621;28;20036;-64
2023/05/03 07:06:51;;;;;;;8.95;3.33;;;17.20;1.00;;;;;;5050565;28;20033;-64
2023/05/03 07:09:17;;;;;;;5.85;3.80;;;17.50;1.00;;;;;;5035503;28;20017;-64
2023/05/03 07:11:48;;;;;;;7.22;3.47;;;17.00;1.00;;;;;;5035895;28;20032;-64
2023/05/03 07:14:14;;;;;;;7.25;3.20;;;16.40;1.00;;;;;;5034134;28;20103;-64
2023/05/03 07:16:40;;;;;;;9.02;3.38;;;17.00;1.00;;;;;;5035300;28;20025;-64
2023/05/03 07:19:05;;;;;;;4.90;3.22;;;16.90;1.00;;;;;;5035524;28;20036;-64
2023/05/03 07:21:31;;;;;;;6.22;3.25;;;16.70;1.00;;;;;;5035766;28;20029;-64
2023/05/03 07:23:56;;;;;;;4.57;3.25;;;18.00;1.00;;;;;;5035255;28;20108;-64
2023/05/03 07:26:22;;;;;;;6.97;2.80;;;18.00;1.00;;;;;;5035223;28;20451;-64
2023/05/03 07:28:47;;;;;;;4.57;2.65;;;18.70;99.90;;;;;;5035248;28;20040;-64
2023/05/03 07:31:13;;;;;;;7.63;2.90;;;19.00;99.90;;;;;;5034980;28;20035;-64
2023/05/03 07:33:38;;;;;;;4.78;2.78;;;19.10;99.90;;;;;;5035358;28;20030;-64
2023/05/03 07:36:05;;;;;;;4.90;2.80;;;17.90;99.90;;;;;;5035531;28;20022;-64
2023/05/03 07:38:31;;;;;;;5.47;3.13;;;17.80;99.90;;;;;;5034906;28;20052;-64
2023/05/03 07:40:56;;;;;;;5.15;2.30;;;17.70;99.90;;;;;;5060061;28;20016;-64
2023/05/03 07:43:22;;;;;;;4.85;2.67;;;18.10;99.90;;;;;;5054190;28;20029;-63
2023/05/03 07:45:48;;;;;;;5.28;2.35;;;18.40;99.90;;;;;;5053291;28;20040;-64
2023/05/03 07:48:14;;;;;;;6.22;2.15;;;18.90;99.90;;;;;;5053412;28;20029;-64
2023/05/03 07:50:42;;;;;;;3.85;2.00;;;19.40;99.90;;;;;;5053604;28;20033;-64
2023/05/03 07:53:08;;;;;;;5.40;2.40;;;19.40;99.90;;;;;;5054669;28;20075;-67
2023/05/03 07:55:35;;;;;;;5.60;2.20;;;18.40;99.90;;;;;;5066264;28;20028;-67
2023/05/03 07:58:01;;;;;;;7.57;2.75;;;18.80;99.90;;;;;;5074587;28;20031;-66
2023/05/03 08:00:27;;;;;;;6.55;2.90;;;18.30;99.90;;;;;;5054443;28;20032;-64
2023/05/03 08:02:52;;;;;;;4.75;2.55;;;17.00;99.90;;;;;;5054598;28;20025;-64
2023/05/03 08:05:18;;;;;;;6.95;2.67;;;17.00;99.90;;;;;;5054385;28;20040;-66
2023/05/03 08:07:43;;;;;;;5.60;2.63;;;17.00;99.90;;;;;;5053803;28;20032;-66
2023/05/03 08:10:09;;;;;;;6.03;2.40;;;17.60;99.90;;;;;;5041719;28;20075;-66
2023/05/03 08:12:35;;;;;;;3.90;2.90;;;17.80;99.90;;;;;;5033989;28;20022;-66
2023/05/03 08:15:03;;;;;;;9.27;3.00;;;18.40;99.90;;;;;;5033714;28;20057;-66
2023/05/03 08:17:29;;;;;;;4.78;2.30;;;18.20;99.90;;;;;;5034341;28;20021;-66
2023/05/03 08:19:55;;;;;;;5.57;2.70;;;18.40;99.90;;;;;;5034499;28;20415;-66
2023/05/03 08:22:24;;;;;;;5.57;2.85;;;18.40;99.90;;;;;;5033542;28;20044;-66
2023/05/03 08:24:50;;;;;;;6.68;2.92;;;18.90;99.90;;;;;;5033614;28;20553;-67
2023/05/03 08:27:16;;;;;;;6.40;2.60;;;19.50;99.90;;;;;;5034097;28;20052;-66
2023/05/03 08:29:41;;;;;;;6.63;2.70;;;20.10;99.90;;;;;;5034478;28;20029;-67
2023/05/03 08:32:07;;;;;;;6.15;2.70;;;19.70;99.90;;;;;;5033906;28;20076;-67
2023/05/03 08:34:32;;;;;;;6.28;2.70;;;19.00;99.90;;;;;;5033338;28;20030;-67
2023/05/03 08:36:58;;;;;;;4.22;2.90;;;18.70;99.90;;;;;;5034445;28;20041;-67
2023/05/03 08:39:25;;;;;;;6.25;3.03;;;18.30;99.90;;;;;;5033916;28;20021;-68
2023/05/03 08:41:52;;;;;;;4.35;2.67;;;18.90;99.90;;;;;;5033448;28;20029;-66
2023/05/03 08:44:22;;;;;;;5.57;2.72;;;19.70;99.90;;;;;;5034315;28;20025;-66
2023/05/03 08:46:48;;;;;;;8.00;3.05;;;18.70;99.90;;;;;;5033231;28;20021;-66
2023/05/03 08:49:16;;;;;;;5.43;2.58;;;19.20;99.90;;;;;;5033751;28;20075;-66
2023/05/03 08:51:47;;;;;;;8.93;3.05;;;18.40;99.90;;;;;;5033916;28;20038;-66
2023/05/03 08:54:14;;;;;;;3.72;2.55;;;18.00;99.90;;;;;;5033001;28;20059;-66
2023/05/03 08:56:41;;;;;;;8.57;3.00;;;19.10;99.90;;;;;;5033140;28;20041;-67
2023/05/03 08:59:08;;;;;;;8.32;2.58;;;19.10;99.90;;;;;;5033715;28;20032;-67
2023/05/03 09:01:35;;;;;;;6.00;3.10;;;19.40;99.90;;;;;;5033726;28;20061;-65
2023/05/03 09:04:02;;;;;;;5.20;3.17;;;20.10;99.90;;;;;;5033683;28;20033;-67
2023/05/03 09:06:30;;;;;;;6.85;2.72;;;19.00;99.90;;;;;;5033481;28;20036;-67
2023/05/03 09:08:56;;;;;;;6.32;3.10;;;18.80;99.90;;;;;;5033608;28;20051;-67
2023/05/03 09:11:23;;;;;;;7.80;3.08;;;17.90;99.90;;;;;;5033841;28;20032;-68
2023/05/03 09:13:52;;;;;;;4.07;2.83;;;18.30;99.90;;;;;;5033439;28;20049;-68
2023/05/03 09:16:32;;;;;;;7.43;3.15;;;19.20;99.90;;;;;;5033510;28;20057;-66
2023/05/03 09:19:01;;;;;;;6.07;3.22;;;19.50;99.90;;;;;;5033364;28;20418;-67
2023/05/03 09:21:28;;;;;;;5.05;3.10;;;18.90;99.90;;;;;;5033246;28;20116;-67
2023/05/03 09:23:54;;;;;;;4.13;2.92;;;18.70;99.90;;;;;;5033722;28;20120;-67
2023/05/03 09:26:30;;;;;;;4.25;3.13;;;19.00;99.90;;;;;;5033324;28;20534;-67
2023/05/03 09:28:59;;;;;;;9.63;3.13;;;19.60;99.90;;;;;;5032987;28;20471;-66
2023/05/03 09:31:27;;;;;;;6.80;3.20;;;19.40;99.90;;;;;;5033220;28;20030;-66
2023/05/03 09:33:52;;;;;;;5.07;3.00;;;18.70;99.90;;;;;;5032763;28;20025;-66
2023/05/03 09:36:18;;;;;;;7.07;3.40;;;19.10;99.90;;;;;;5035155;28;20361;-67
2023/05/03 09:38:43;;;;;;;4.20;3.00;;;19.00;99.90;;;;;;5037450;28;20420;-67
2023/05/03 09:41:09;;;;;;;5.93;3.20;;;19.40;99.90;;;;;;5037238;28;20430;-66
2023/05/03 09:43:46;;;;;;;6.00;3.33;;;19.40;99.90;;;;;;5037446;28;20406;-66
2023/05/03 09:46:12;;;;;;;6.35;3.75;;;19.40;99.90;;;;;;5037276;28;20029;-66
2023/05/03 09:48:39;;;;;;;5.55;3.72;;;18.10;99.90;;;;;;5037618;28;20363;-66
2023/05/03 09:51:05;;;;;;;9.30;3.88;;;18.40;99.90;;;;;;5037305;28;20025;-66
2023/05/03 09:53:32;;;;;;;7.40;4.35;;;18.20;99.90;;;;;;5037008;28;20021;-66
2023/05/03 09:56:01;;;;;;;7.40;3.70;;;18.50;99.90;;;;;;5036910;28;20022;-66
2023/05/03 09:58:29;;;;;;;4.72;3.90;;;19.10;99.90;;;;;;5037454;28;20033;-66
2023/05/03 10:00:55;;;;;;;6.45;3.50;;;18.40;99.90;;;;;;5037141;28;20028;-66
2023/05/03 10:03:31;;;;;;;7.40;3.80;;;18.70;99.90;;;;;;5037076;28;20025;-66
2023/05/03 10:06:00;;;;;;;9.88;4.63;;;19.10;99.90;;;;;;5037053;28;20025;-66
2023/05/03 10:08:33;;;;;;;8.13;4.35;;;18.40;99.90;;;;;;5036489;28;20026;-68
2023/05/03 10:11:02;;;;;;;4.75;3.35;;;18.90;99.90;;;;;;5036733;28;20017;-68
2023/05/03 10:13:28;;;;;;;7.35;3.90;;;18.70;99.90;;;;;;5036177;28;20032;-67
2023/05/03 10:16:18;;;;;;;4.72;3.50;;;19.30;99.90;;;;;;5036284;28;20080;-68
2023/05/03 10:18:51;;;;;;;6.78;3.78;;;19.20;99.90;;;;;;5036721;28;20029;-67
2023/05/03 10:21:27;;;;;;;7.45;3.92;;;19.20;99.90;;;;;;5036654;28;20044;-68
2023/05/03 10:24:10;;;;;;;5.20;3.70;;;19.40;99.90;;;;;;5035974;28;20025;-68
2023/05/03 10:26:35;;;;;;;7.45;3.90;;;19.50;99.90;;;;;;5033719;28;20033;-68
2023/05/03 10:29:01;;;;;;;9.82;4.10;;;19.70;99.90;;;;;;5035776;28;20426;-68
2023/05/03 10:31:47;;;;;;;9.02;4.45;;;20.30;99.90;;;;;;5036662;28;20029;-68
2023/05/03 10:34:22;;;;;;;7.65;3.90;;;19.20;99.90;;;;;;5036419;28;20029;-67
2023/05/03 10:36:50;;;;;;;9.55;4.00;;;19.40;99.90;;;;;;5036692;28;20033;-67
2023/05/03 10:39:17;;;;;;;9.50;4.40;;;19.40;99.90;;;;;;5036313;28;20053;-68
2023/05/03 10:41:43;;;;;;;8.00;4.38;;;19.10;99.90;;;;;;5035177;28;20033;-68
2023/05/03 10:44:25;;;;;;;6.20;4.28;;;18.70;99.90;;;;;;5035714;28;20038;-68
2023/05/03 10:46:52;;;;;;;8.80;4.57;;;17.90;99.90;;;;;;5034796;28;20033;-68
2023/05/03 10:49:21;;;;;;;9.18;4.60;;;18.00;99.90;;;;;;5036174;28;20490;-68
2023/05/03 10:51:47;;;;;;;12.10;4.82;;;18.10;99.90;;;;;;5036264;28;20029;-69
2023/05/03 10:54:13;;;;;;;7.68;4.72;;;17.80;99.90;;;;;;5036212;28;20451;-68
2023/05/03 10:56:55;;;;;;;11.32;4.93;;;17.40;99.90;;;;;;5035358;28;20025;-68
2023/05/03 10:59:22;;;;;;;8.48;4.90;;;16.40;99.90;;;;;;5035993;28;20474;-69
2023/05/03 11:01:50;;;;;;;7.15;4.50;;;16.50;99.90;;;;;;5035718;28;20109;-69
2023/05/03 11:04:26;;;;;;;6.63;4.60;;;16.30;99.90;;;;;;5036044;28;20375;-69
2023/05/03 11:06:55;;;;;;;7.60;4.72;;;16.30;99.90;;;;;;5036079;28;20531;-69
2023/05/03 11:09:30;;;;;;;7.20;5.22;;;16.00;99.90;;;;;;5036018;28;20029;-68
2023/05/03 11:11:56;;;;;;;7.05;4.82;;;16.20;99.90;;;;;;5035527;28;20030;-68
2023/05/03 11:14:22;;;;;;;5.38;4.72;;;16.00;99.90;;;;;;5035221;28;20458;-68
2023/05/03 11:16:49;;;;;;;6.57;4.68;;;15.70;99.90;;;;;;5035420;28;20022;-71
2023/05/03 11:19:15;;;;;;;6.65;4.80;;;15.80;99.90;;;;;;5035550;28;20021;-70
2023/05/03 11:21:42;;;;;;;9.10;4.90;;;15.20;99.90;;;;;;5035725;28;20553;-69
2023/05/03 11:24:08;;;;;;;10.18;5.20;;;15.60;99.90;;;;;;5036027;28;20376;-70
2023/05/03 11:26:36;;;;;;;8.93;5.05;;;15.80;99.90;;;;;;5035513;28;20028;-71
2023/05/03 11:29:02;;;;;;;8.43;5.20;;;15.20;99.90;;;;;;5035755;28;20388;-69
2023/05/03 11:31:28;;;;;;;10.50;5.57;;;16.00;99.90;;;;;;5035260;28;20052;-68
2023/05/03 11:33:54;;;;;;;10.20;5.53;;;16.50;99.90;;;;;;5035231;28;20033;-68
2023/05/03 11:36:20;;;;;;;9.27;5.40;;;16.20;99.90;;;;;;5035018;28;20148;-68
2023/05/03 11:38:46;;;;;;;7.97;5.03;;;16.00;99.90;;;;;;5034741;28;20501;-68
2023/05/03 11:41:15;;;;;;;9.25;5.88;;;15.70;99.90;;;;;;5035107;28;20112;-68
2023/05/03 11:43:42;;;;;;;9.48;5.53;;;16.20;99.90;;;;;;5035547;28;20076;-68
2023/05/03 11:46:08;;;;;;;12.05;5.20;;;16.10;99.90;;;;;;5033720;28;20459;-68
2023/05/03 11:48:34;;;;;;;9.13;6.38;;;16.20;99.90;;;;;;5034842;28;20025;-68
2023/05/03 11:51:06;;;;;;;9.70;5.28;;;16.90;99.90;;;;;;5034182;28;20113;-67
2023/05/03 11:53:32;;;;;;;11.32;6.35;;;16.80;99.90;;;;;;5034805;28;20080;-68
2023/05/03 11:55:59;;;;;;;10.85;5.40;;;16.60;99.90;;;;;;5034465;28;20049;-68
2023/05/03 11:58:25;;;;;;;11.38;5.65;;;16.40;99.90;;;;;;5033345;28;20029;-68
2023/05/03 12:00:53;;;;;;;11.07;5.28;;;16.40;99.90;;;;;;5035005;28;20107;-68
2023/05/03 12:03:22;;;;;;;13.00;5.75;;;16.10;99.90;;;;;;5034430;28;20033;-68
2023/05/03 12:05:49;;;;;;;7.55;4.95;;;16.10;99.90;;;;;;5035013;28;20040;-68
2023/05/03 12:08:15;;;;;;;8.68;5.45;;;16.30;99.90;;;;;;5034108;28;20037;-68
2023/05/03 12:10:41;;;;;;;9.10;5.97;;;16.30;99.90;;;;;;5033886;28;20022;-68
2023/05/03 12:13:06;;;;;;;9.65;5.28;;;16.60;99.90;;;;;;5034518;28;20112;-68
2023/05/03 12:15:34;;;;;;;13.77;6.32;;;16.80;99.90;;;;;;5033586;28;20045;-68
2023/05/03 12:18:01;;;;;;;9.55;6.57;;;16.90;99.90;;;;;;5034325;28;20188;-67
2023/05/03 12:20:30;;;;;;;9.45;5.63;;;16.80;99.90;;;;;;5033983;28;20029;-68
2023/05/03 12:23:01;;;;;;;14.25;5.82;;;17.00;99.90;;;;;;5034315;28;20021;-67
2023/05/03 12:25:28;;;;;;;10.35;5.30;;;17.10;99.90;;;;;;5034489;28;20037;-68
2023/05/03 12:27:55;;;;;;;8.13;5.70;;;17.40;99.90;;;;;;5034341;28;20083;-68
2023/05/03 12:30:20;;;;;;;7.55;5.20;;;16.80;99.90;;;;;;5033896;28;20121;-68
2023/05/03 12:32:46;;;;;;;10.68;5.20;;;16.40;99.90;;;;;;5033993;28;20060;-69
2023/05/03 12:35:12;;;;;;;10.77;5.47;;;16.70;99.90;;;;;;5034306;28;20021;-68
2023/05/03 12:37:37;;;;;;;12.20;5.50;;;16.70;99.90;;;;;;5033981;28;20108;-68
2023/05/03 12:40:04;;;;;;;6.45;5.00;;;16.70;99.90;;;;;;5033796;28;20116;-68
2023/05/03 12:42:30;;;;;;;8.63;5.43;;;16.10;99.90;;;;;;5033976;28;20036;-68
2023/05/03 12:44:56;;;;;;;11.23;5.43;;;16.50;99.90;;;;;;5034460;28;20033;-67
2023/05/03 12:47:22;;;;;;;10.48;5.70;;;17.00;99.90;;;;;;5033157;28;20029;-68